createdAt,value
2018-06-11T00:03:29.782Z,70.59
2018-06-11T00:08:24.363Z,71.57
2018-06-11T00:13:18.898Z,70.96
2018-06-11T00:18:13.438Z,70.98
2018-06-11T00:23:08.013Z,70.54
2018-06-11T00:28:02.588Z,71.28
2018-06-11T00:32:57.125Z,70.73
2018-06-11T00:37:51.761Z,71.30
2018-06-11T00:42:46.263Z,72.23
2018-06-11T00:47:40.878Z,71.89
2018-06-11T00:52:35.425Z,71.79
2018-06-11T00:57:29.982Z,71.83
2018-06-11T01:02:24.534Z,71.38
2018-06-11T01:07:19.090Z,72.45
2018-06-11T01:12:13.623Z,71.75
2018-06-11T01:17:08.212Z,72.59
2018-06-11T01:22:02.788Z,72.35
2018-06-11T01:31:55.179Z,74.13
2018-06-11T01:36:49.759Z,73.84
2018-06-11T01:41:44.338Z,73.76
2018-06-11T01:46:38.920Z,73.98
2018-06-11T01:51:33.487Z,74.17
2018-06-11T01:56:28.011Z,73.23
2018-06-11T02:01:22.530Z,74.47
2018-06-11T02:06:17.094Z,74.13
2018-06-11T02:11:11.620Z,75.19
2018-06-11T02:16:06.264Z,74.45
2018-06-11T02:21:00.785Z,73.37
2018-06-11T02:25:55.346Z,74.79
2018-06-11T02:30:49.856Z,75.54
2018-06-11T02:35:44.430Z,75.64
2018-06-11T02:40:38.974Z,74.19
2018-06-11T02:45:33.575Z,75.54
2018-06-11T02:50:28.094Z,76.06
2018-06-11T02:55:22.628Z,75.92
2018-06-11T03:00:17.176Z,75.67
2018-06-11T03:05:11.739Z,75.52
2018-06-11T03:10:06.405Z,75.83
2018-06-11T03:15:00.952Z,74.27
2018-06-11T03:19:55.499Z,74.98
2018-06-11T03:24:50.019Z,75.48
2018-06-11T03:29:44.545Z,75.88
2018-06-11T03:34:39.059Z,75.78
2018-06-11T03:39:33.614Z,76.13
2018-06-11T03:44:28.420Z,75.85
2018-06-11T03:49:22.950Z,76.40
2018-06-11T03:54:17.466Z,76.48
2018-06-11T03:59:12.040Z,76.44
2018-06-11T04:04:06.622Z,75.75
2018-06-11T04:09:01.167Z,76.08
2018-06-11T04:13:55.753Z,75.63
2018-06-11T04:18:50.258Z,76.76
2018-06-11T04:23:44.871Z,77.06
2018-06-11T04:28:39.410Z,76.73
2018-06-11T04:33:33.942Z,75.76
2018-06-11T04:38:28.566Z,75.74
2018-06-11T04:43:23.138Z,74.50
2018-06-11T04:48:17.683Z,73.60
2018-06-11T04:53:12.195Z,72.42
2018-06-11T04:58:06.748Z,71.42
2018-06-11T05:03:01.319Z,71.64
2018-06-11T05:07:56.024Z,70.64
2018-06-11T05:12:50.563Z,67.99
2018-06-11T05:17:45.109Z,67.87
2018-06-11T05:22:39.682Z,68.62
2018-06-11T05:27:34.220Z,67.36
2018-06-11T05:32:28.785Z,65.85
2018-06-11T05:37:23.355Z,65.03
2018-06-11T05:42:17.878Z,64.30
2018-06-11T05:47:12.421Z,64.29
2018-06-11T05:52:07.227Z,64.89
2018-06-11T05:57:01.803Z,64.77
2018-06-11T06:01:56.356Z,66.66
2018-06-11T06:06:50.899Z,68.14
2018-06-11T06:11:45.442Z,69.30
2018-06-11T06:16:39.999Z,70.28
2018-06-11T06:21:34.626Z,70.23
2018-06-11T06:26:29.210Z,70.01
2018-06-11T06:31:23.781Z,68.08
2018-06-11T06:36:18.337Z,68.57
2018-06-11T06:41:12.893Z,68.82
2018-06-11T06:46:07.475Z,68.38
2018-06-11T06:51:02.010Z,68.27
2018-06-11T06:55:56.617Z,68.19
2018-06-11T07:00:54.126Z,68.47
2018-06-11T07:05:48.668Z,69.14
2018-06-11T07:10:43.202Z,66.81
2018-06-11T07:15:37.794Z,66.26
2018-06-11T07:20:32.359Z,66.73
2018-06-11T07:25:26.929Z,62.88
2018-06-11T07:30:21.501Z,58.72
2018-06-11T07:40:08.949Z,53.97
2018-06-11T07:45:03.539Z,55.22
2018-06-11T07:49:58.090Z,56.58
2018-06-11T07:54:52.646Z,57.24
2018-06-11T07:59:47.198Z,57.49
2018-06-11T08:04:41.819Z,58.86
2018-06-11T08:09:36.407Z,58.95
2018-06-11T08:14:31.004Z,59.83
2018-06-11T08:19:25.634Z,60.97
2018-06-11T08:24:20.232Z,60.10
2018-06-11T08:29:14.860Z,58.74
2018-06-11T08:34:09.418Z,58.06
2018-06-11T08:39:04.815Z,57.79
2018-06-11T08:43:59.366Z,58.70
2018-06-11T08:48:53.929Z,59.48
2018-06-11T08:53:48.517Z,59.77
2018-06-11T08:58:43.955Z,55.45
2018-06-11T09:03:38.487Z,52.98
2018-06-11T09:08:33.039Z,53.24
2018-06-11T09:13:27.593Z,53.64
2018-06-11T09:18:22.100Z,53.46
2018-06-11T09:23:16.368Z,55.30
2018-06-11T09:28:10.915Z,56.35
2018-06-11T09:33:05.593Z,56.89
2018-06-11T09:38:00.191Z,55.92
2018-06-11T09:42:54.792Z,58.97
2018-06-11T09:47:49.397Z,59.24
2018-06-11T09:52:43.940Z,57.98
2018-06-11T09:57:38.507Z,57.98
2018-06-11T10:02:33.055Z,55.05
2018-06-11T10:07:27.622Z,55.70
2018-06-11T10:12:22.174Z,54.80
2018-06-11T10:17:16.690Z,56.95
2018-06-11T10:22:11.248Z,57.09
2018-06-11T10:27:05.842Z,57.81
2018-06-11T10:32:00.377Z,57.39
2018-06-11T10:36:54.983Z,55.50
2018-06-11T10:41:49.212Z,58.15
2018-06-11T10:46:43.785Z,59.04
2018-06-11T10:51:38.314Z,57.66
2018-06-11T10:56:32.918Z,58.84
2018-06-11T11:01:27.568Z,59.60
2018-06-11T11:06:22.068Z,60.41
2018-06-11T11:11:16.640Z,61.00
2018-06-11T11:16:11.255Z,63.76
2018-06-11T11:21:06.014Z,63.35
2018-06-11T11:26:00.663Z,66.32
2018-06-11T11:30:55.222Z,66.66
2018-06-11T11:35:49.824Z,62.04
2018-06-11T11:40:44.412Z,63.98
2018-06-11T11:45:39.006Z,65.35
2018-06-11T11:50:33.613Z,68.56
2018-06-11T11:55:28.199Z,69.91
2018-06-11T12:00:22.750Z,73.65
2018-06-11T12:05:17.306Z,77.11
2018-06-11T12:10:11.883Z,77.64
2018-06-11T12:15:06.639Z,79.57
2018-06-11T12:20:01.287Z,77.51
2018-06-11T12:24:55.993Z,77.66
2018-06-11T12:29:50.840Z,79.46
2018-06-11T12:34:45.803Z,79.54
2018-06-11T12:39:40.676Z,77.88
2018-06-11T12:44:35.562Z,78.98
2018-06-11T12:49:30.462Z,76.97
2018-06-11T12:54:25.186Z,75.01
2018-06-11T12:59:32.788Z,73.63
2018-06-11T13:04:27.529Z,73.23
2018-06-11T13:09:22.227Z,72.44
2018-06-11T13:14:16.830Z,72.13
2018-06-11T13:19:11.486Z,71.83
2018-06-11T13:24:06.184Z,70.30
2018-06-11T13:29:00.782Z,70.91
2018-06-11T13:33:55.445Z,69.87
2018-06-11T13:38:50.062Z,71.00
2018-06-11T13:43:44.696Z,73.33
2018-06-11T13:48:39.316Z,72.39
2018-06-11T13:53:33.842Z,74.50
2018-06-11T13:58:28.474Z,74.82
2018-06-11T14:03:23.041Z,74.67
2018-06-11T14:08:17.684Z,73.56
2018-06-11T14:13:12.190Z,73.96
2018-06-11T14:18:06.834Z,74.08
2018-06-11T14:23:01.391Z,76.14
2018-06-11T14:27:56.029Z,79.78
2018-06-11T14:32:54.752Z,84.60
2018-06-11T14:37:50.437Z,85.26
2018-06-11T14:42:45.372Z,86.26
2018-06-11T14:48:06.707Z,84.73
2018-06-11T14:53:01.343Z,83.95
2018-06-11T14:57:56.140Z,83.83
2018-06-11T15:02:51.376Z,83.14
2018-06-11T15:07:46.691Z,80.39
2018-06-11T15:12:49.056Z,82.00
2018-06-11T15:18:09.777Z,81.31
2018-06-11T15:23:05.124Z,81.22
2018-06-11T15:28:03.011Z,80.18
2018-06-11T15:38:23.757Z,80.79
2018-06-11T15:48:43.772Z,74.91
2018-06-11T15:53:39.171Z,76.67
2018-06-11T15:58:33.885Z,77.08
2018-06-11T16:03:28.825Z,75.81
2018-06-11T16:08:23.951Z,75.17
2018-06-11T16:14:10.438Z,75.56
2018-06-11T16:19:05.570Z,73.34
2018-06-11T16:24:00.382Z,75.63
2018-06-11T16:28:55.229Z,75.15
2018-06-11T16:33:50.027Z,76.36
2018-06-11T16:38:44.984Z,77.59
2018-06-11T16:43:39.823Z,77.02
2018-06-11T16:48:35.187Z,76.82
2018-06-11T16:53:30.223Z,70.12
2018-06-11T16:58:26.096Z,74.31
2018-06-11T17:03:40.175Z,72.94
2018-06-11T17:35:45.191Z,73.77
2018-06-11T17:40:39.861Z,74.03
2018-06-11T17:45:34.539Z,72.48
2018-06-11T17:50:29.214Z,72.89
2018-06-11T17:55:23.878Z,74.34
2018-06-11T18:00:18.528Z,74.08
2018-06-11T18:05:13.187Z,74.15
2018-06-11T18:10:07.947Z,75.65
2018-06-11T18:15:02.775Z,73.72
2018-06-11T18:19:57.478Z,74.38
2018-06-11T18:24:52.454Z,74.66
2018-06-11T18:29:47.151Z,76.47
2018-06-11T18:34:42.185Z,74.60
2018-06-11T18:39:36.902Z,75.19
2018-06-11T18:44:31.827Z,77.49
2018-06-11T18:49:26.478Z,78.57
2018-06-11T18:54:21.094Z,76.39
2018-06-11T18:59:15.844Z,75.78
2018-06-11T19:04:10.596Z,78.15
2018-06-11T19:09:07.807Z,78.56
2018-06-11T19:14:02.515Z,79.41
2018-06-11T19:18:57.346Z,80.28
2018-06-11T19:23:52.067Z,79.43
2018-06-11T19:28:46.749Z,77.89
2018-06-11T19:33:41.638Z,76.38
2018-06-11T19:38:36.326Z,78.41
2018-06-11T19:43:31.183Z,77.95
2018-06-11T19:48:25.862Z,78.84
2018-06-11T19:53:20.602Z,78.64
2018-06-11T19:58:15.302Z,79.48
2018-06-11T20:03:09.614Z,80.40
2018-06-11T20:08:04.252Z,78.87
2018-06-11T20:12:58.919Z,78.73
2018-06-11T20:17:53.606Z,78.89
2018-06-11T20:22:48.233Z,79.99
2018-06-11T20:27:42.949Z,80.93
2018-06-11T20:32:37.646Z,80.41
2018-06-11T20:37:32.309Z,80.29
2018-06-11T20:42:26.968Z,80.01
2018-06-11T20:47:21.716Z,80.53
2018-06-11T20:52:16.338Z,79.98
2018-06-11T20:57:10.999Z,79.86
2018-06-11T21:02:05.779Z,81.56
2018-06-11T21:07:00.403Z,81.11
2018-06-11T21:11:55.068Z,80.41
2018-06-11T21:16:49.678Z,79.80
2018-06-11T21:21:44.299Z,80.74
2018-06-11T21:26:38.896Z,80.81
2018-06-11T21:31:33.609Z,81.46
2018-06-11T21:36:28.254Z,81.08
2018-06-11T21:41:22.531Z,80.68
2018-06-11T21:46:17.233Z,81.35
2018-06-11T21:51:11.822Z,81.12
2018-06-11T21:56:06.432Z,81.64
2018-06-11T22:01:01.076Z,79.69
2018-06-11T22:05:55.692Z,80.76
2018-06-11T22:10:50.360Z,81.03
2018-06-11T22:15:44.916Z,82.39
2018-06-11T22:20:39.566Z,81.89
2018-06-11T22:25:34.196Z,82.44
2018-06-11T22:30:29.179Z,81.79
2018-06-11T22:35:23.730Z,81.63
2018-06-11T22:40:18.635Z,82.20
2018-06-11T22:45:13.243Z,82.43
2018-06-11T22:50:07.882Z,82.26
2018-06-11T22:55:02.486Z,82.42
2018-06-11T22:59:57.050Z,82.11
2018-06-11T23:04:51.758Z,81.89
2018-06-11T23:09:46.366Z,81.89
2018-06-11T23:14:40.955Z,82.14
2018-06-11T23:19:35.522Z,81.75
2018-06-11T23:24:30.086Z,82.42
2018-06-11T23:29:24.655Z,82.27
2018-06-11T23:34:19.258Z,80.67
2018-06-11T23:39:13.883Z,82.56
2018-06-11T23:44:08.491Z,82.97
2018-06-11T23:49:03.100Z,81.99
2018-06-11T23:53:57.694Z,81.62
2018-06-11T23:58:52.548Z,82.78
